ENBV

Berlevåg Airport

Berlevåg, Norway
METAR ENBV 202050Z 25020KT 9999 CAVOK 08/04 Q1004
Observed Flight Rules
May-20 @ 20:50 UTC (10 hours ago) Visual Flight Rules
Wind Visibility Clouds
250° at 20 knots 10,000+ meters
  • Clear skies
Temperatures Readings
Current 8°C / 46°F
Dewpoint 4°C / 39°F
Humidity 76%
Altimeter 29.65" Hg
Pressure 1004 hPa
Elevation 13
METAR ENBV 202050Z 25020KT 9999 CAVOK 08/04 Q1004
Observed Flight Rules
May-20 @ 20:50 UTC
(10 hours ago)
VFR
Wind Visibility
250° at 20 knots 10,000+ meters
Clouds
  • Clear skies
Temperature Dewpoint
8°C / 46°F 4°C / 39°F
Humidity Altimeter Pressure
76% 29.65" Hg 1004 hPa